Flight Track Log - Related Links

Times and Time Zones

All times are in EST time to prevent confusion due to time zone crossing. See the N12JD flight status page for this flight to view local times or setup timezone preferences in your user account.

Time Position Orientation Groundspeed Altitude Reporting Facility
EST Latitude Longitude Course Direction KTS MPH feet Rate Location/Type
Sun 09:40:26 AM 30.9267 -83.8733 339° North 141 162 1,000  Level Jacksonville Center
Sun 09:40:52 AM 30.9539 -83.8858 339° North 174 200 1,400 1,111 Climbing Jacksonville Center
Sun 09:41:20 AM 30.9703 -83.8956 333° Northwest 183 211 2,000 1,500 Climbing Jacksonville Center
Sun 09:41:52 AM 30.9994 -83.9081 340° North 196 226 2,900 1,770 Climbing Jacksonville Center
Sun 09:42:21 AM 31.0161 -83.9228 323° Northwest 186 214 3,800 1,475 Climbing Jacksonville Center
Sun 09:42:53 AM 31.0453 -83.9328 344° North 175 201 4,400 1,121 Climbing Jacksonville Center
Sun 09:43:52 AM 31.0825 -83.9600 328° Northwest 182 209 5,500 1,160 Climbing Jacksonville Center
Sun 09:44:52 AM 31.1303 -83.9872 334° Northwest 182 209 6,700 1,150 Climbing Jacksonville Center
Sun 09:45:52 AM 31.1761 -84.0144 333° Northwest 182 209 7,800 1,150 Climbing Jacksonville Center
Sun 09:46:52 AM 31.2239 -84.0417 334° Northwest 182 209 9,000 1,250 Climbing Jacksonville Center
Sun 09:47:52 AM 31.2675 -84.0689 332° Northwest 182 209 10,300 1,200 Climbing Jacksonville Center
Sun 09:48:52 AM 31.3153 -84.0964 334° Northwest 182 209 11,400 1,050 Climbing Jacksonville Center
Sun 09:49:52 AM 31.3608 -84.1211 335° Northwest 182 209 12,400 1,100 Climbing Jacksonville Center
Sun 09:50:52 AM 31.4086 -84.1486 334° Northwest 182 209 13,600 1,100 Climbing Jacksonville Center
Sun 09:51:52 AM 31.4522 -84.1761 332° Northwest 182 209 14,600 950 Climbing Jacksonville Center
Sun 09:52:52 AM 31.5000 -84.2058 332° Northwest 182 209 15,500 1,000 Climbing Jacksonville Center
Sun 09:53:52 AM 31.5497 -84.2333 335° Northwest 182 209 16,600 900 Climbing Jacksonville Center
Sun 09:54:52 AM 31.5892 -84.2558 334° Northwest 182 209 17,300 720 Climbing Jacksonville Center
Sun 09:56:47 AM 31.6942 -84.3097 336° Northwest 185 213 18,700 720 Climbing Atlanta Center
Sun 09:57:47 AM 31.7506 -84.3294 343° North 196 226 19,400 700 Climbing Atlanta Center
Sun 09:58:47 AM 31.8047 -84.3517 341° North 201 231 20,100 650 Climbing Atlanta Center
Sun 09:59:47 AM 31.8608 -84.3689 345° North 206 237 20,700 550 Climbing Atlanta Center
Sun 10:00:47 AM 31.9172 -84.3886 343° North 206 237 21,200 450 Climbing Atlanta Center
Sun 10:01:47 AM 31.9714 -84.4086 343° North 206 237 21,600 350 Climbing Atlanta Center
Sun 10:02:47 AM 32.0278 -84.4308 342° North 206 237 21,900 350 Climbing Atlanta Center
Sun 10:03:47 AM 32.0842 -84.4483 345° North 206 237 22,300 350 Climbing Atlanta Center
Sun 10:04:47 AM 32.1403 -84.4681 343° North 206 237 22,600 250 Climbing Atlanta Center
Sun 10:05:47 AM 32.2008 -84.4906 343° North 206 237 22,800 200 Climbing Atlanta Center
Sun 10:06:47 AM 32.2550 -84.5128 341° North 206 237 23,000 200 Climbing Atlanta Center
Sun 10:07:47 AM 32.3114 -84.5328 343° North 206 237 23,200 250 Climbing Atlanta Center
Sun 10:08:47 AM 32.3697 -84.5528 344° North 206 237 23,500 250 Climbing Atlanta Center
Sun 10:09:47 AM 32.4281 -84.5753 342° North 206 237 23,700 150 Climbing Atlanta Center
Sun 10:10:47 AM 32.4842 -84.5978 341° North 211 243 23,800 100 Climbing Atlanta Center
Sun 10:11:47 AM 32.5447 -84.6156 346° North 211 243 23,900 100 Climbing Atlanta Center
Sun 10:12:47 AM 32.6031 -84.6381 342° North 211 243 24,000 50 Climbing Atlanta Center
Sun 10:13:47 AM 32.6633 -84.6606 343° North 217 250 24,000  Level Atlanta Center
Sun 10:14:47 AM 32.7217 -84.6833 342° North 217 250 24,000  Level Atlanta Center
Sun 10:15:47 AM 32.7822 -84.7058 343° North 222 255 24,000  Level Atlanta Center
Sun 10:16:47 AM 32.8467 -84.7311 342° North 235 270 24,000  Level Atlanta Center
Sun 10:17:47 AM 32.9092 -84.7539 343° North 229 264 24,000  Level Atlanta Center
Sun 10:18:47 AM 32.9633 -84.7742 343° North 229 264 24,000  Level Atlanta Center
Sun 10:19:47 AM 33.0239 -84.7994 341° North 229 264 24,000  Level Atlanta Center
Sun 10:20:47 AM 33.0883 -84.8197 345° North 229 264 24,000  Level Atlanta Center
Sun 10:21:47 AM 33.1508 -84.8428 343° North 229 264 24,000  Level Atlanta Center
Sun 10:22:47 AM 33.1817 -84.8975 304° West 197 227 24,000  Level Atlanta Center
Sun 10:23:47 AM 33.1894 -84.9722 277° West 190 219 24,000  Level Atlanta Center
Sun 10:24:47 AM 33.1953 -85.0442 276° West 216 249 24,000  Level Atlanta Center
Sun 10:25:47 AM 33.2011 -85.1114 276° West 216 249 24,000  Level Atlanta Center
Sun 10:26:47 AM 33.2067 -85.1808 275° West 216 249 24,000  Level Atlanta Center
Sun 10:27:47 AM 33.2122 -85.2506 275° West 216 249 24,000  Level Atlanta Center
Sun 10:28:47 AM 33.2197 -85.3225 277° West 216 249 24,000  Level Atlanta Center
Sun 10:29:47 AM 33.2233 -85.3922 274° West 216 249 24,000  Level Atlanta Center
Sun 10:30:47 AM 33.2286 -85.4617 275° West 216 249 24,000  Level Atlanta Center
Sun 10:31:47 AM 33.2342 -85.5264 276° West 210 242 24,000  Level Atlanta Center
Sun 10:32:47 AM 33.2375 -85.5961 273° West 210 242 24,000 100 Level Atlanta Center
Sun 10:33:47 AM 33.2428 -85.6681 275° West 210 242 24,200 500 Climbing Atlanta Center
Sun 10:34:47 AM 33.2483 -85.7303 276° West 218 251 25,000 400 Climbing Atlanta Center
Sun 10:35:47 AM 33.2517 -85.7850 274° West 197 227 25,000  Level Atlanta Center
Sun 10:36:47 AM 33.2572 -85.8472 276° West 189 217 25,000 250 Level Atlanta Center
Sun 10:37:47 AM 33.2603 -85.9119 273° West 194 223 25,500 500 Climbing Atlanta Center
Sun 10:38:47 AM 33.2658 -85.9642 277° West 184 212 26,000 250 Climbing Atlanta Center
Sun 10:39:47 AM 33.2692 -86.0189 274° West 174 200 26,000  Level Atlanta Center
Sun 10:40:47 AM 33.2744 -86.0739 277° West 174 200 26,000  Level Atlanta Center
Sun 10:41:47 AM 33.2775 -86.1358 273° West 180 207 26,000  Level Atlanta Center
Sun 10:42:47 AM 33.2806 -86.1981 273° West 186 214 26,000  Level Atlanta Center
Sun 10:43:47 AM 33.2858 -86.2578 276° West 186 214 26,000  Level Atlanta Center
Sun 10:44:47 AM 33.2911 -86.3203 276° West 186 214 26,000  Level Atlanta Center
Sun 10:45:47 AM 33.2961 -86.3850 275° West 186 214 26,000  Level Atlanta Center
Sun 10:46:47 AM 33.2989 -86.4522 273° West 197 227 26,000  Level Atlanta Center
Sun 10:47:47 AM 33.3039 -86.5169 275° West 197 227 26,000  Level Atlanta Center
Sun 10:48:47 AM 33.3069 -86.5767 274° West 191 220 26,000  Level Atlanta Center
Sun 10:49:47 AM 33.3097 -86.6389 273° West 191 220 26,000  Level Atlanta Center
Sun 10:50:47 AM 33.3147 -86.6986 276° West 191 220 26,000  Level Atlanta Center
Sun 10:51:47 AM 33.3197 -86.7583 276° West 191 220 26,000  Level Atlanta Center
Sun 10:52:47 AM 33.3225 -86.8183 273° West 191 220 26,000  Level Atlanta Center
Sun 10:53:47 AM 33.3253 -86.8806 273° West 191 220 26,000  Level Atlanta Center
Sun 10:54:47 AM 33.3300 -86.9453 275° West 191 220 26,000  Level Atlanta Center
Sun 10:55:47 AM 33.3328 -87.0050 273° West 196 226 26,000  Level Atlanta Center
Sun 10:56:47 AM 33.3375 -87.0672 275° West 196 226 26,000  Level Atlanta Center
Sun 10:57:47 AM 33.3403 -87.1272 273° West 196 226 26,000  Level Atlanta Center
Sun 10:58:47 AM 33.3450 -87.1894 275° West 196 226 26,000 50 Level Atlanta Center
Sun 10:59:47 AM 33.3517 -87.2494 278° West 196 226 26,100 100 Climbing Atlanta Center
Sun 11:00:47 AM 33.3544 -87.3067 273° West 191 220 26,200 115 Climbing Atlanta Center
Sun 11:02:23 AM 33.3594 -87.3994 274° West 175 201 26,400 152 Climbing Memphis Center
Sun 11:03:25 AM 33.3631 -87.4572 274° West 174 200 26,600 195 Climbing Memphis Center
Sun 11:04:26 AM 33.3661 -87.5131 274° West 171 197 26,800 195 Climbing Memphis Center
Sun 11:05:28 AM 33.3694 -87.5694 274° West 170 196 27,000 195 Climbing Memphis Center
Sun 11:06:29 AM 33.3725 -87.6278 274° West 174 200 27,200 148 Climbing Memphis Center
Sun 11:07:30 AM 33.3767 -87.6864 275° West 175 201 27,300 98 Climbing Memphis Center
Sun 11:08:32 AM 33.3794 -87.7447 273° West 177 204 27,400 146 Climbing Memphis Center
Sun 11:09:33 AM 33.3825 -87.8022 274° West 175 201 27,600 146 Climbing Memphis Center
Sun 11:10:35 AM 33.3853 -87.8592 273° West 173 199 27,700 195 Climbing Memphis Center
Sun 11:11:36 AM 33.3906 -87.9278 275° West 173 199 28,000 146 Climbing Memphis Center
Sun 11:12:38 AM 33.3928 -87.9836 273° West 171 197 28,000  Level Memphis Center
Sun 11:13:40 AM 33.3961 -88.0422 274° West 174 200 28,000  Level Memphis Center
Sun 11:14:41 AM 33.3994 -88.1011 274° West 176 203 28,000  Level Memphis Center
Sun 11:15:43 AM 33.4033 -88.1633 274° West 183 211 28,000  Level Memphis Center
Sun 11:16:44 AM 33.4064 -88.2267 273° West 187 215 28,000  Level Memphis Center
Sun 11:17:46 AM 33.4092 -88.2875 273° West 186 214 28,000  Level Memphis Center
Sun 11:18:47 AM 33.4131 -88.3497 274° West 187 215 28,000  Level Memphis Center
Sun 11:19:49 AM 33.4172 -88.4247 274° West 189 217 28,000  Level Memphis Center
Sun 11:20:50 AM 33.4203 -88.4869 273° West 189 217 28,000  Level Memphis Center
Sun 11:21:52 AM 33.4231 -88.5472 273° West 186 214 28,000  Level Memphis Center
Sun 11:22:54 AM 33.4267 -88.6078 274° West 185 213 28,000  Level Memphis Center
Sun 11:23:55 AM 33.4294 -88.6672 273° West 182 209 28,000  Level Memphis Center
Sun 11:24:57 AM 33.4311 -88.7267 272° West 181 208 28,000  Level Memphis Center
Sun 11:25:59 AM 33.4364 -88.7997 275° West 184 212 28,000  Level Memphis Center
Sun 11:27:00 AM 33.4381 -88.8586 272° West 181 208 28,000  Level Memphis Center
Sun 11:28:02 AM 33.4408 -88.9153 273° West 175 201 28,000  Level Memphis Center
Sun 11:29:03 AM 33.4442 -88.9750 274° West 179 206 28,000  Level Memphis Center
Sun 11:30:05 AM 33.4819 -89.0103 322° Northwest 218 251 28,000  Level Memphis Center
Sun 11:31:07 AM 33.5528 -88.9975 North 253 291 28,000  Level Memphis Center
Sun 11:32:08 AM 33.6392 -88.9892 North 260 299 28,000  Level Memphis Center
Sun 11:33:10 AM 33.7106 -88.9864 North 259 298 28,000  Level Memphis Center
Sun 11:34:12 AM 33.7794 -88.9803 North 254 292 28,000  Level Memphis Center
Sun 11:35:13 AM 33.8478 -88.9761 North 254 292 28,000  Level Memphis Center
Sun 11:36:15 AM 33.9317 -88.9700 North 256 295 28,000  Level Memphis Center
Sun 11:37:16 AM 34.0028 -88.9653 North 255 293 28,000  Level Memphis Center
Sun 11:38:18 AM 34.0761 -88.9586 North 259 298 28,000  Level Memphis Center
Sun 11:39:20 AM 34.1486 -88.9536 North 259 298 28,000  Level Memphis Center
Sun 11:40:21 AM 34.2211 -88.9486 North 259 298 28,000  Level Memphis Center
Sun 11:41:23 AM 34.2922 -88.9444 North 255 293 28,000  Level Memphis Center
Sun 11:42:25 AM 34.3625 -88.9386 North 253 291 28,000  Level Memphis Center
Sun 11:43:26 AM 34.4353 -88.9339 North 256 295 28,000  Level Memphis Center
Sun 11:44:28 AM 34.5092 -88.9286 North 261 300 28,000  Level Memphis Center
Sun 11:45:30 AM 34.5950 -88.9217 North 262 302 28,000  Level Memphis Center
Sun 11:46:31 AM 34.6689 -88.9169 North 264 304 28,000  Level Memphis Center
Sun 11:47:33 AM 34.7425 -88.9111 North 263 303 28,000  Level Memphis Center
Sun 11:48:35 AM 34.8161 -88.9067 North 263 303 28,000  Level Memphis Center
Sun 11:49:36 AM 34.8900 -88.9006 North 264 304 28,000  Level Memphis Center
Sun 11:50:38 AM 34.9639 -88.8944 North 264 304 28,000  Level Memphis Center
Sun 11:51:40 AM 35.0364 -88.8897 North 261 300 28,000  Level Memphis Center
Sun 11:52:41 AM 35.1114 -88.8842 North 265 305 28,000  Level Memphis Center
Sun 11:53:43 AM 35.1972 -88.8775 North 264 304 28,000  Level Memphis Center
Sun 11:54:45 AM 35.2719 -88.8725 North 265 305 28,000  Level Memphis Center
Sun 11:55:46 AM 35.3469 -88.8667 North 267 307 28,000  Level Memphis Center
Sun 11:56:48 AM 35.4214 -88.8617 North 266 306 28,000  Level Memphis Center
Sun 11:57:50 AM 35.4981 -88.8556 North 271 312 28,000  Level Memphis Center
Sun 11:58:51 AM 35.5747 -88.8508 North 273 314 28,000  Level Memphis Center
Sun 11:59:53 AM 35.6511 -88.8433 North 273 314 28,000  Level Memphis Center
Sun 12:00:55 PM 35.7322 -88.8381 North 273 314 28,000  Level Memphis Center
Sun 12:01:56 PM 35.8092 -88.8319 North 275 316 28,000  Level Memphis Center
Sun 12:02:58 PM 35.8853 -88.8272 North 275 316 28,000  Level Memphis Center
Sun 12:04:00 PM 35.9608 -88.8208 North 273 314 28,000  Level Memphis Center
Sun 12:05:01 PM 36.0361 -88.8164 North 272 313 28,000  Level Memphis Center
Sun 12:06:03 PM 36.1267 -88.8089 North 271 312 28,000  Level Memphis Center
Sun 12:07:05 PM 36.2022 -88.8036 North 273 314 28,000  Level Memphis Center
Sun 12:08:06 PM 36.2775 -88.7983 North 272 313 28,000  Level Memphis Center
Sun 12:09:08 PM 36.3522 -88.7922 North 271 312 28,000  Level Memphis Center
Sun 12:10:10 PM 36.4281 -88.7853 North 273 314 28,000  Level Memphis Center
Sun 12:11:11 PM 36.5042 -88.7806 North 275 316 28,000  Level Memphis Center
Sun 12:12:13 PM 36.5953 -88.7736 North 274 315 28,000  Level Memphis Center
Sun 12:13:15 PM 36.6694 -88.7686 North 271 312 28,000  Level Memphis Center
Sun 12:14:16 PM 36.7456 -88.7614 North 273 314 28,000  Level Memphis Center
Sun 12:15:18 PM 36.8225 -88.7564 North 275 316 28,000  Level Memphis Center
Sun 12:16:20 PM 36.8989 -88.7506 North 274 315 28,000  Level Memphis Center
Sun 12:17:21 PM 36.9756 -88.7442 North 276 318 28,000  Level Memphis Center
Sun 12:18:23 PM 37.0517 -88.7392 North 275 316 28,000  Level Memphis Center
Sun 12:19:25 PM 37.1275 -88.7342 North 273 314 28,000  Level Memphis Center
Sun 12:20:26 PM 37.2122 -88.7556 349° North 258 297 28,000  Level Memphis Center
Sun 12:21:28 PM 37.2822 -88.7731 349° North 257 296 28,000  Level Memphis Center
Sun 12:22:30 PM 37.3533 -88.7889 350° North 259 298 28,000  Level Memphis Center
Sun 12:23:18 PM 37.4106 -88.7992 352° North 259 298 28,000  Level Kansas City Center
Sun 12:24:20 PM 37.4903 -88.7892 North 285 328 28,000  Level Kansas City Center
Sun 12:25:21 PM 37.5678 -88.7839 North 282 325 28,000  Level Kansas City Center
Sun 12:26:23 PM 37.6458 -88.7781 North 281 323 28,000  Level Kansas City Center
Sun 12:27:25 PM 37.7258 -88.7683 North 285 328 28,000  Level Kansas City Center
Sun 12:28:26 PM 37.8169 -88.7311 18° North 309 356 28,000  Level Kansas City Center
Sun 12:29:28 PM 37.9050 -88.6967 17° North 312 359 28,000  Level Kansas City Center
Sun 12:30:29 PM 37.9883 -88.6667 16° North 309 356 28,000  Level Kansas City Center
Sun 12:31:31 PM 38.0719 -88.6347 17° North 311 358 28,000  Level Kansas City Center
Sun 12:32:33 PM 38.1578 -88.6047 15° North 315 362 28,000  Level Kansas City Center
Sun 12:33:34 PM 38.2411 -88.5792 14° North 311 358 28,000  Level Kansas City Center
Sun 12:34:36 PM 38.3225 -88.5533 14° North 304 350 28,000  Level Kansas City Center
Sun 12:35:38 PM 38.4042 -88.5239 16° North 303 349 28,000  Level Kansas City Center
Sun 12:36:39 PM 38.4875 -88.4925 16° North 307 353 28,000  Level Kansas City Center
Sun 12:37:41 PM 38.5864 -88.4583 15° North 305 351 28,000  Level Kansas City Center
Sun 12:38:43 PM 38.6689 -88.4297 15° North 305 351 28,000  Level Kansas City Center
Sun 12:39:44 PM 38.7508 -88.4008 15° North 304 350 28,000  Level Kansas City Center
Sun 12:40:46 PM 38.8333 -88.3708 16° North 305 351 28,000  Level Kansas City Center
Sun 12:41:48 PM 38.8961 -88.3944 344° North 260 299 28,000  Level Kansas City Center
Sun 12:42:49 PM 38.9403 -88.4394 322° Northwest 226 260 28,000  Level Kansas City Center
Sun 12:43:51 PM 38.9614 -88.4947 296° West 193 222 28,000  Level Kansas City Center
Sun 12:44:53 PM 38.9858 -88.5506 299° West 182 209 28,000  Level Kansas City Center
Sun 12:45:55 PM 39.0100 -88.6058 299° West 178 205 28,000  Level Kansas City Center
Sun 12:46:56 PM 39.0400 -88.6689 302° West 177 204 28,000  Level Kansas City Center
Sun 12:47:58 PM 39.0650 -88.7200 302° West 172 198 28,000  Level Kansas City Center
Sun 12:49:00 PM 39.0906 -88.7692 304° West 168 193 28,000  Level Kansas City Center
Sun 12:50:01 PM 39.1150 -88.8183 303° West 166 191 28,000  Level Kansas City Center
Sun 12:51:03 PM 39.1406 -88.8694 303° West 168 193 28,000  Level Kansas City Center
Sun 12:52:05 PM 39.1642 -88.9175 302° West 163 188 28,000  Level Kansas City Center
Sun 12:53:06 PM 39.1925 -88.9647 308° West 165 190 28,000  Level Kansas City Center
Sun 12:54:08 PM 39.2211 -89.0242 302° West 165 190 28,000  Level Kansas City Center
Sun 12:55:10 PM 39.2225 -89.0739 272° West 143 165 28,000  Level Kansas City Center
Sun 12:56:11 PM 39.2250 -89.1253 274° West 144 166 28,000  Level Kansas City Center
Sun 12:57:13 PM 39.2278 -89.1797 274° West 148 170 28,000  Level Kansas City Center
Sun 12:58:15 PM 39.2292 -89.2356 272° West 154 177 28,000  Level Kansas City Center
Sun 12:59:16 PM 39.2311 -89.2931 273° West 159 183 28,000  Level Kansas City Center
Sun 01:00:18 PM 39.2350 -89.3492 275° West 158 182 28,000  Level Kansas City Center
Sun 01:01:20 PM 39.2222 -89.4067 254° West 153 176 28,000 -49 Level Kansas City Center
Sun 01:02:21 PM 39.1914 -89.4444 224° Southwest 151 174 27,900  Descending Kansas City Center
Sun 01:03:23 PM 39.1597 -89.4819 223° Southwest 154 177 28,000 48 Climbing Kansas City Center
Sun 01:04:25 PM 39.1272 -89.5200 222° Southwest 157 181 28,000  Level Kansas City Center
Sun 01:05:27 PM 39.1172 -89.5714 256° West 152 175 28,000 49 Level Kansas City Center
Sun 01:06:28 PM 39.1386 -89.6231 298° West 176 203 28,100  Climbing Kansas City Center
Sun 01:07:30 PM 39.1925 -89.6675 327° Northwest 225 259 28,000 -48 Descending Kansas City Center
Sun 01:08:32 PM 39.2619 -89.7239 328° Northwest 244 281 28,000  Level Kansas City Center
Sun 01:09:34 PM 39.3183 -89.7711 327° Northwest 243 280 28,000  Level Kansas City Center
Sun 01:10:35 PM 39.3756 -89.8158 329° Northwest 243 280 28,000 49 Level Kansas City Center
Sun 01:11:37 PM 39.4328 -89.8608 329° Northwest 242 278 28,100  Climbing Kansas City Center
Sun 01:12:39 PM 39.4906 -89.9086 327° Northwest 245 282 28,000 -49 Descending Kansas City Center
Sun 01:13:40 PM 39.5467 -89.9539 328° Northwest 241 277 28,000  Level Kansas City Center
Sun 01:14:42 PM 39.6139 -90.0094 328° Northwest 241 277 28,000  Level Kansas City Center
Sun 01:15:44 PM 39.6694 -90.0528 329° Northwest 236 272 28,000  Level Kansas City Center
Sun 01:16:46 PM 39.7319 -90.0878 337° Northwest 249 287 28,000  Level Kansas City Center
Sun 01:17:47 PM 39.7975 -90.1075 347° North 263 303 28,000  Level Kansas City Center
Sun 01:18:49 PM 39.8836 -90.1383 345° North 266 306 28,000  Level Kansas City Center
Sun 01:19:51 PM 39.9556 -90.1631 345° North 266 306 28,000  Level Kansas City Center
Sun 01:20:53 PM 40.0292 -90.1872 346° North 270 311 28,000  Level Kansas City Center
Sun 01:21:55 PM 40.1025 -90.2131 345° North 271 312 28,000  Level Kansas City Center
Sun 01:22:56 PM 40.1756 -90.2381 345° North 271 312 28,000  Level Kansas City Center
Sun 01:23:58 PM 40.2469 -90.2631 345° North 267 307 28,000  Level Kansas City Center
Sun 01:25:00 PM 40.3181 -90.2872 345° North 263 303 28,000  Level Kansas City Center
Sun 01:26:02 PM 40.3875 -90.3119 345° North 260 299 28,000  Level Kansas City Center
Sun 01:27:04 PM 40.4739 -90.3417 345° North 264 304 28,000  Level Kansas City Center
Sun 01:28:09 PM 40.5478 -90.3675 345° North 271 312 28,000  Level Chicago Center
Sun 01:29:10 PM 40.6222 -90.3933 345° North 274 315 28,000  Level Chicago Center
Sun 01:30:11 PM 40.6972 -90.4186 346° North 275 316 28,000 -295 Level Chicago Center
Sun 01:31:12 PM 40.7731 -90.4461 345° North 279 321 27,400 -836 Descending Chicago Center
Sun 01:32:13 PM 40.8581 -90.4756 345° North 304 350 26,300 -976 Descending Chicago Center
Sun 01:33:15 PM 40.9433 -90.5050 345° North 315 362 25,400 -878 Descending Chicago Center
Sun 01:34:16 PM 41.0258 -90.5350 345° North 309 356 24,500 -934 Descending Chicago Center
Sun 01:35:17 PM 41.1103 -90.5650 345° North 312 359 23,500 -984 Descending Chicago Center
Sun 01:36:18 PM 41.1953 -90.5942 346° North 313 360 22,500 -1,082 Descending Chicago Center
Sun 01:37:19 PM 41.2903 -90.5386 24° Northeast 317 365 21,300 -1,082 Descending Chicago Center
Sun 01:38:20 PM 41.3672 -90.4914 25° Northeast 307 353 20,300 -984 Descending Chicago Center
Sun 01:39:21 PM 41.4422 -90.4442 25° Northeast 300 345 19,300 -1,279 Descending Chicago Center
Sun 01:40:22 PM 41.5164 -90.3975 25° Northeast 296 341 17,700 -1,279 Descending Chicago Center
Sun 01:41:23 PM 41.5914 -90.3511 25° Northeast 295 339 16,700 -585 Descending Chicago Center
Sun 01:42:25 PM 41.6628 -90.3044 26° Northeast 289 333 16,500 -341 Descending Chicago Center
Sun 01:43:26 PM 41.7306 -90.2636 24° Northeast 272 313 16,000 -689 Descending Chicago Center
Sun 01:44:27 PM 41.8069 -90.2133 26° Northeast 281 323 15,100 -689 Descending Chicago Center
Sun 01:45:28 PM 41.8747 -90.1703 25° Northeast 274 315 14,600 -738 Descending Chicago Center
Sun 01:46:29 PM 41.9444 -90.1264 25° Northeast 277 319 13,600 -738 Descending Chicago Center
Sun 01:47:30 PM 42.0161 -90.0786 26° Northeast 285 328 13,100 -344 Descending Chicago Center
Sun 01:48:31 PM 42.0850 -90.0378 24° Northeast 277 319 12,900 -49 Descending Chicago Center
Sun 01:49:32 PM 42.1592 -89.9900 26° Northeast 293 337 13,000 49 Climbing Chicago Center
Sun 01:50:33 PM 42.2350 -89.9403 26° Northeast 305 351 13,000 -295 Level Chicago Center
Sun 01:51:34 PM 42.3136 -89.8908 25° Northeast 300 345 12,400 -836 Descending Chicago Center
Sun 01:52:35 PM 42.3808 -89.8425 28° Northeast 281 323 11,300 -1,180 Descending Chicago Center
Sun 01:53:36 PM 42.4592 -89.7914 26° Northeast 265 305 10,000 -1,279 Descending Chicago Center
Sun 01:54:37 PM 42.5250 -89.7486 26° Northeast 263 303 8,700 -1,279 Descending Chicago Center
Sun 01:55:38 PM 42.5886 -89.7072 26° Northeast 257 296 7,400 -1,230 Descending Chicago Center
Sun 01:56:39 PM 42.6481 -89.6686 26° Northeast 241 277 6,200 -689 Descending Chicago Center
Sun 01:57:40 PM 42.7053 -89.6322 25° Northeast 231 266 6,000 -393 Descending Chicago Center
Sun 01:58:41 PM 42.7661 -89.5919 26° Northeast 238 274 5,400 -488 Descending Chicago Center
Sun 01:59:43 PM 42.8267 -89.5525 26° Northeast 242 278 5,000 -195 Descending Chicago Center
Sun 02:00:44 PM 42.8644 -89.4894 51° Northeast 228 262 5,000  Level Chicago Center
Sun 02:01:45 PM 42.8861 -89.4092 70° East 227 261 5,000  Level Chicago Center
Sun 02:02:46 PM 42.9031 -89.3244 75° East 229 264 5,000  Level Chicago Center
Sun 02:03:47 PM 42.9186 -89.2483 74° East 221 254 5,000  Level Chicago Center
Sun 02:04:48 PM 42.9347 -89.1708 74° East 216 249 5,000 -443 Level Chicago Center
Sun 02:05:49 PM 42.9556 -89.0764 73° East 216 249 4,100 -934 Descending Chicago Center
Sun 02:06:50 PM 42.9711 -88.9972 75° East 217 250 3,100 -541 Descending Chicago Center
Sun 02:07:51 PM 42.9864 -88.9239 74° East 212 244 3,000 -98 Descending Chicago Center
Sun 02:08:52 PM 43.0014 -88.8525 74° East 203 234 2,900 -49 Descending Chicago Center
Sun 02:09:53 PM 43.0156 -88.7878 73° East 193 222 2,900 49 Level Chicago Center
Sun 02:10:54 PM 43.0303 -88.7275 72° East 180 207 3,000 49 Climbing Chicago Center
Sun 02:11:56 PM 43.0453 -88.6711 70° East 169 194 3,000  Level Chicago Center
Sun 02:12:57 PM 43.0619 -88.6142 68° East 165 190 3,000 -49 Level Chicago Center
Sun 02:13:58 PM 43.0794 -88.5564 67° East 164 189 2,900  Descending Chicago Center
Sun 02:14:59 PM 43.0811 -88.4850 88° East 162 186 3,000  Climbing Chicago Center
Sun 02:16:00 PM 43.0711 -88.4314 104° East 154 177 2,900 -276 Descending Chicago Center
Sun 02:17:31 PM 43.0667 -88.3500 94° East 149 171 2,300 -443 Descending KMKE
Sun 02:18:02 PM 43.0556 -88.3250 121° Southeast 145 167 2,000 -587 Descending Chicago Center
Sun 02:19:03 PM 43.0478 -88.2789 103° East 138 159 1,400 -590 Descending Chicago Center
Sun 02:21:00 PM 43.0333 -88.2333 160° South  Level FlightAware Approximate
Sun 02:28:00 PM 43.0410 -88.2371 160° South  Level Estimated

Login

Don't have an account? Register now (free) for customized features, flight alerts, and more!